Terminal Aerodrome Forecast
Issued by NWS Miami, FL

Home | Current Version | Previous Version | Text Only | Print | Product List | Glossary On
Versions: 1 2 3 4 5 6 7 8 9 10 11 12 13 14 15 16 17 18 19 20 21 22 23 24
000
FTUS42 KMFL 201720
TAFFLL
TAF
KFLL 201720Z 2018/2124 09008KT P6SM BKN035 BKN050
     FM210000 05005KT P6SM SCT030 SCT060 BKN250
     FM211300 09011KT P6SM SCT035 BKN060
     FM211700 09015KT P6SM SCT035 BKN060=

USA.gov is the U.S. government's official web portal to all federal, state and local government web resources and services.